Time;durP1;ratioP1;P1;durP2;ratioP2;P2;SDS_P1;SDS_P2;PMS_P1;PMS_P2;Temp;Humidity;BMP_temperature;BMP_pressure;BME280_temperature;BME280_humidity;BME280_pressure;Samples;Min_cycle;Max_cycle;Signal;HPM_P1;HPM_P2
2023/10/17 00:01:18;;;;;;;10.40;5.93;;;;;;;6.35;77.57;147770.06;4935676;28;20236;-57
2023/10/17 00:03:46;;;;;;;12.33;6.07;;;;;;;6.22;78.49;147737.78;4939457;28;20253;-55
2023/10/17 00:06:17;;;;;;;9.50;6.33;;;;;;;6.39;78.76;147778.75;4937832;28;20708;-57
2023/10/17 00:08:50;;;;;;;9.63;6.20;;;;;;;6.47;78.43;147799.88;4938006;28;20225;-54
2023/10/17 00:11:18;;;;;;;8.60;6.10;;;;;;;6.35;78.90;147770.06;4935492;28;20659;-55
2023/10/17 00:13:59;;;;;;;11.13;6.83;;;;;;;6.55;77.19;147817.25;4935234;28;20243;-54
2023/10/17 00:16:28;;;;;;;9.93;6.23;;;;;;;6.84;75.54;147888.06;4934697;28;20232;-58
2023/10/17 00:18:55;;;;;;;11.37;6.73;;;;;;;6.63;76.73;147837.13;4937374;28;20763;-57
2023/10/17 00:21:22;;;;;;;10.83;6.97;;;;;;;6.59;78.10;147827.19;4937114;28;20232;-56
2023/10/17 00:23:50;;;;;;;12.03;7.60;;;;;;;6.65;77.20;147842.09;4938827;28;20240;-57
2023/10/17 00:26:19;;;;;;;11.67;7.63;;;;;;;6.74;76.13;147863.19;4939010;28;20235;-57
2023/10/17 00:28:49;;;;;;;11.03;7.33;;;;;;;6.65;76.83;147842.09;4940933;28;20789;-54
2023/10/17 00:31:16;;;;;;;10.73;6.87;;;;;;;6.55;77.55;147817.25;4940102;28;20698;-57
2023/10/17 00:33:48;;;;;;;9.97;7.07;;;;;;;6.77;75.64;147871.94;4943944;28;20649;-57
2023/10/17 00:36:16;;;;;;;10.07;7.00;;;;;;;6.72;75.27;147858.22;4922755;28;20330;-55
2023/10/17 00:38:45;;;;;;;12.30;7.13;;;;;;;6.59;76.69;147827.19;4942034;28;20240;-57
2023/10/17 00:41:19;;;;;;;10.73;7.63;;;;;;;6.40;77.68;147781.22;4926634;28;20602;-57
2023/10/17 00:43:47;;;;;;;11.77;7.30;;;;;;;6.52;77.42;147811.03;4923665;28;20271;-56
2023/10/17 00:46:14;;;;;;;10.40;6.53;;;;;;;6.53;77.06;147813.50;4952425;28;20236;-56
2023/10/17 00:48:42;;;;;;;10.87;6.87;;;;;;;6.42;76.91;147786.19;4951203;28;20232;-57
2023/10/17 00:51:09;;;;;;;10.60;6.67;;;;;;;6.32;77.39;147762.63;4938060;28;20236;-57
2023/10/17 00:53:39;;;;;;;9.73;5.90;;;;;;;6.19;78.38;147732.81;4940223;28;20243;-54
2023/10/17 00:56:07;;;;;;;8.53;6.63;;;;;;;6.22;78.45;147739.03;4942650;29;20572;-56
2023/10/17 00:58:36;;;;;;;13.40;7.97;;;;;;;6.51;77.01;147808.53;4935720;29;20861;-55
2023/10/17 01:01:14;;;;;;;12.33;7.97;;;;;;;6.71;76.15;147855.75;4947994;28;20234;-57
2023/10/17 01:03:43;;;;;;;12.43;8.43;;;;;;;6.96;75.21;147915.38;4936313;28;20239;-54
2023/10/17 01:06:21;;;;;;;11.00;7.33;;;;;;;6.71;76.28;147855.75;4956270;28;20239;-57
2023/10/17 01:08:49;;;;;;;9.30;6.30;;;;;;;6.71;76.19;147857.03;4939981;28;20240;-57
2023/10/17 01:11:20;;;;;;;10.63;7.33;;;;;;;6.69;77.26;147852.03;4938713;28;20235;-57
2023/10/17 01:13:47;;;;;;;10.87;7.10;;;;;;;6.65;77.08;147843.31;4941327;29;20244;-55
2023/10/17 01:16:16;;;;;;;11.63;7.00;;;;;;;6.64;76.92;147839.63;4946321;29;20236;-57
2023/10/17 01:18:45;;;;;;;11.07;6.73;;;;;;;6.70;75.64;147853.25;4938387;28;20243;-57
2023/10/17 01:21:13;;;;;;;10.33;6.40;;;;;;;6.52;76.67;147809.81;4946879;29;20592;-56
2023/10/17 01:23:39;;;;;;;10.37;6.57;;;;;;;6.46;77.28;147797.41;4951167;28;20248;-56
2023/10/17 01:26:14;;;;;;;9.00;6.27;;;;;;;6.37;79.08;147773.78;4940273;28;20301;-55
2023/10/17 01:28:45;;;;;;;9.97;6.23;;;;;;;6.25;79.52;147746.50;4940978;29;20233;-54
2023/10/17 01:31:14;;;;;;;9.13;7.00;;;;;;;6.37;78.52;147773.78;4939066;29;20268;-55
2023/10/17 01:33:42;;;;;;;10.93;6.40;;;;;;;6.29;79.47;147755.16;4940178;28;20251;-57
2023/10/17 01:36:10;;;;;;;11.97;7.50;;;;;;;6.46;78.71;147796.13;4945301;28;20621;-57
2023/10/17 01:38:42;;;;;;;10.50;6.70;;;;;;;6.33;78.23;147765.09;4936879;28;20241;-56
2023/10/17 01:41:10;;;;;;;9.23;6.47;;;;;;;6.27;79.11;147751.47;4938880;29;20273;-55
2023/10/17 01:43:40;;;;;;;8.73;6.40;;;;;;;6.39;78.47;147778.75;4953423;28;20719;-58
2023/10/17 01:46:09;;;;;;;9.43;6.20;;;;;;;6.47;77.48;147799.88;4947633;29;20241;-57
2023/10/17 01:48:36;;;;;;;12.07;6.77;;;;;;;6.52;77.49;147809.81;4943659;28;20618;-57
2023/10/17 01:51:06;;;;;;;9.13;6.03;;;;;;;6.45;78.13;147794.91;4940751;29;20266;-57
2023/10/17 01:53:34;;;;;;;9.23;6.03;;;;;;;6.32;79.24;147763.88;4938593;28;20236;-57
2023/10/17 01:56:13;;;;;;;8.77;5.60;;;;;;;6.54;79.16;147816.00;4956567;28;20331;-56
2023/10/17 01:58:42;;;;;;;8.70;5.10;;;;;;;6.32;80.42;147762.63;4953437;28;20231;-57
2023/10/17 02:01:12;;;;;;;6.97;4.07;;;;;;;5.99;81.97;147684.34;4946219;29;20234;-56
2023/10/17 02:03:41;;;;;;;5.87;4.40;;;;;;;5.66;84.15;147603.69;4943804;28;20222;-57
2023/10/17 02:06:14;;;;;;;7.07;4.27;;;;;;;5.36;86.20;147532.91;4945983;29;20239;-57
2023/10/17 02:08:42;;;;;;;6.97;4.67;;;;;;;5.12;88.22;147474.59;4934872;28;20314;-54
2023/10/17 02:11:12;;;;;;;6.60;4.37;;;;;;;5.05;87.90;147458.50;4940343;28;20706;-57
2023/10/17 02:13:45;;;;;;;6.63;4.40;;;;;;;4.93;90.24;147428.72;4942708;29;20301;-55
2023/10/17 02:16:13;;;;;;;9.33;4.40;;;;;;;4.90;88.77;147422.50;4941308;28;20219;-57
2023/10/17 02:18:40;;;;;;;8.23;4.27;;;;;;;4.83;89.46;147406.38;4953099;28;20318;-56
2023/10/17 02:21:08;;;;;;;8.67;4.63;;;;;;;4.87;90.43;147415.03;4937432;29;20231;-56
2023/10/17 02:23:43;;;;;;;5.43;3.80;;;;;;;4.71;89.95;147376.59;4935832;28;20239;-56
2023/10/17 02:26:10;;;;;;;8.90;4.10;;;;;;;4.56;91.80;147340.66;4938339;28;20236;-55
2023/10/17 02:28:46;;;;;;;7.63;4.53;;;;;;;4.48;92.32;147320.81;4936482;28;20257;-56
2023/10/17 02:31:16;;;;;;;8.97;4.20;;;;;;;4.38;93.62;147297.22;4943423;28;20242;-56
2023/10/17 02:33:42;;;;;;;5.60;3.53;;;;;;;4.32;94.04;147283.59;4941279;28;20969;-55
2023/10/17 02:36:12;;;;;;;7.03;4.20;;;;;;;4.23;95.51;147261.28;4945696;28;20279;-56
2023/10/17 02:38:39;;;;;;;6.43;4.00;;;;;;;4.16;96.87;147243.91;4936074;28;20231;-57
2023/10/17 02:41:08;;;;;;;4.73;3.70;;;;;;;4.03;97.08;147214.16;4945038;28;20606;-55
2023/10/17 02:43:40;;;;;;;7.20;4.10;;;;;;;3.97;98.18;147200.53;4936105;28;20253;-57
2023/10/17 02:46:07;;;;;;;5.63;3.90;;;;;;;3.96;98.02;147198.06;4939057;28;20255;-56
2023/10/17 02:48:39;;;;;;;6.60;4.03;;;;;;;3.91;98.85;147184.41;4939506;28;20226;-57
2023/10/17 02:51:11;;;;;;;6.43;4.77;;;;;;;3.88;99.17;147176.97;4939981;28;20640;-56
2023/10/17 02:53:43;;;;;;;6.43;3.93;;;;;;;3.85;99.47;147170.78;4934359;28;20690;-56
2023/10/17 02:56:19;;;;;;;7.90;4.10;;;;;;;3.89;99.83;147179.44;4940727;28;20227;-56
2023/10/17 02:58:49;;;;;;;7.03;4.63;;;;;;;3.89;99.09;147180.72;4945024;28;20731;-54
2023/10/17 03:01:16;;;;;;;8.17;4.50;;;;;;;3.95;99.51;147194.31;4951746;28;20238;-57
2023/10/17 03:03:49;;;;;;;5.17;3.70;;;;;;;3.93;100.00;147189.34;4940121;28;20322;-57
2023/10/17 03:06:16;;;;;;;7.90;3.80;;;;;;;3.89;100.00;147180.72;4941520;28;20327;-57
2023/10/17 03:08:49;;;;;;;6.03;3.97;;;;;;;3.86;100.00;147172.00;4943688;28;20628;-57
2023/10/17 03:11:17;;;;;;;8.63;4.10;;;;;;;3.91;100.00;147184.41;4935447;28;20231;-56
2023/10/17 03:13:45;;;;;;;6.87;3.90;;;;;;;3.95;100.00;147194.31;4940809;28;20233;-57
2023/10/17 03:16:25;;;;;;;5.87;3.63;;;;;;;3.91;100.00;147185.66;4942836;28;20305;-56
2023/10/17 03:18:56;;;;;;;6.97;3.70;;;;;;;3.91;100.00;147185.66;4935020;28;20329;-57
2023/10/17 03:21:33;;;;;;;6.07;3.77;;;;;;;3.90;100.00;147181.91;4936323;28;20584;-57
2023/10/17 03:24:04;;;;;;;5.37;3.60;;;;;;;3.89;100.00;147180.72;4941427;28;20234;-55
2023/10/17 03:26:39;;;;;;;6.33;3.77;;;;;;;3.87;100.00;147175.75;4952643;28;20286;-54
2023/10/17 03:29:19;;;;;;;7.57;3.30;;;;;;;3.97;100.00;147200.53;4943097;28;20236;-57
2023/10/17 03:31:48;;;;;;;5.37;3.50;;;;;;;3.92;100.00;147188.16;5183187;23;21198;-51
2023/10/17 03:34:21;;;;;;;5.93;3.47;;;;;;;3.86;100.00;147173.28;4950017;28;20238;-51
2023/10/17 03:36:50;;;;;;;5.20;3.43;;;;;;;3.85;100.00;147170.78;4943485;29;20234;-51
2023/10/17 03:39:20;;;;;;;6.70;3.73;;;;;;;3.82;100.00;147163.34;4941755;28;20241;-52
2023/10/17 03:41:48;;;;;;;4.43;3.03;;;;;;;3.84;100.00;147168.31;4937757;28;20274;-54
2023/10/17 03:44:16;;;;;;;6.93;3.30;;;;;;;3.80;100.00;147159.59;4937809;29;20330;-53
2023/10/17 03:46:46;;;;;;;5.07;3.27;;;;;;;3.76;100.00;147148.47;4937815;28;20294;-50
2023/10/17 03:49:18;;;;;;;5.13;3.40;;;;;;;3.76;100.00;147148.47;4937809;28;20715;-53
2023/10/17 03:51:52;;;;;;;6.37;3.60;;;;;;;3.80;100.00;147158.38;4936892;28;20630;-52
2023/10/17 03:54:22;;;;;;;3.80;2.93;;;;;;;3.86;100.00;147172.00;4936516;28;20250;-51
2023/10/17 03:56:56;;;;;;;4.83;3.03;;;;;;;3.86;100.00;147172.00;4938323;28;20293;-51
2023/10/17 03:59:31;;;;;;;5.83;3.13;;;;;;;3.87;100.00;147174.47;4936795;28;20233;-52
2023/10/17 04:02:02;;;;;;;7.70;3.00;;;;;;;3.86;100.00;147172.00;4939626;28;20234;-51
2023/10/17 04:04:35;;;;;;;7.90;3.13;;;;;;;3.83;100.00;147165.81;4935712;28;20232;-51
2023/10/17 04:07:06;;;;;;;5.37;3.00;;;;;;;3.85;100.00;147170.78;4937523;29;20234;-51
2023/10/17 04:09:38;;;;;;;4.80;2.40;;;;;;;3.82;100.00;147164.56;4936483;28;20222;-51
2023/10/17 04:12:08;;;;;;;3.77;2.50;;;;;;;3.80;100.00;147158.38;4936468;28;20246;-51
2023/10/17 04:14:43;;;;;;;7.33;2.77;;;;;;;3.77;100.00;147150.94;4936982;28;20226;-52
2023/10/17 04:17:14;;;;;;;7.17;3.00;;;;;;;3.76;100.00;147149.69;4938364;28;20225;-53
2023/10/17 04:19:41;;;;;;;5.43;2.90;;;;;;;3.71;100.00;147137.28;4936439;28;20238;-51
2023/10/17 04:22:15;;;;;;;4.10;2.63;;;;;;;3.69;100.00;147133.59;4937348;28;20265;-51
2023/10/17 04:24:45;;;;;;;6.50;2.60;;;;;;;3.65;100.00;147123.69;4935339;29;20227;-52
2023/10/17 04:27:22;;;;;;;3.57;2.60;;;;;;;3.65;100.00;147122.47;4939233;28;20222;-54
2023/10/17 04:29:56;;;;;;;5.30;2.80;;;;;;;3.67;100.00;147128.63;4938498;28;20230;-54
2023/10/17 04:32:26;;;;;;;7.17;4.10;;;;;;;3.63;100.00;147118.72;4938019;28;20321;-53
2023/10/17 04:34:53;;;;;;;8.17;4.70;;;;;;;3.58;100.00;147106.31;4943165;28;20595;-52
2023/10/17 04:37:24;;;;;;;12.20;5.83;;;;;;;3.48;100.00;147081.53;4942040;28;20238;-52
2023/10/17 04:39:57;;;;;;;13.97;5.80;;;;;;;3.39;100.00;147061.72;4941166;28;20591;-51
2023/10/17 04:42:26;;;;;;;9.57;5.27;;;;;;;3.38;100.00;147059.22;4938690;28;20223;-51
2023/10/17 04:44:55;;;;;;;9.50;5.27;;;;;;;3.25;100.00;147027.00;4941397;28;20246;-52
2023/10/17 04:47:27;;;;;;;9.57;6.00;;;;;;;3.19;100.00;147012.13;4938795;28;20229;-51
2023/10/17 04:49:54;;;;;;;12.20;6.23;;;;;;;3.16;100.00;147004.75;4941133;29;20741;-51
2023/10/17 04:52:28;;;;;;;10.90;5.63;;;;;;;3.07;100.00;146983.66;4938371;28;20328;-51
2023/10/17 04:55:01;;;;;;;9.63;5.50;;;;;;;3.05;100.00;146979.97;4941966;28;20233;-53
2023/10/17 04:57:54;;;;;;;9.10;5.17;;;;;;;3.05;100.00;146979.97;4939538;28;20226;-51
2023/10/17 05:00:25;;;;;;;9.25;5.78;;;;;;;3.02;100.00;146972.53;4937090;28;20906;-53
2023/10/17 05:03:03;;;;;;;7.90;4.63;;;;;;;2.99;100.00;146965.09;4939944;28;20243;-51
2023/10/17 05:05:45;;;;;;;7.73;4.30;;;;;;;2.93;100.00;146951.44;4938431;28;20237;-51
2023/10/17 05:08:31;;;;;;;9.23;4.40;;;;;;;2.85;100.00;146930.41;4943748;28;20238;-51
2023/10/17 06:17:21;;;;;;;7.13;4.50;;;;;;;3.17;100.00;147008.44;4938792;28;20321;-50
2023/10/17 06:19:48;;;;;;;7.10;4.40;;;;;;;3.21;100.00;147017.09;4937264;29;20225;-50
2023/10/17 06:30:33;;;;;;;5.00;3.20;;;;;;;3.47;100.00;147079.06;4937360;28;20234;-50
2023/10/17 06:33:17;;;;;;;8.37;3.97;;;;;;;3.55;100.00;147098.88;4941575;28;20253;-51
2023/10/17 06:35:52;;;;;;;5.20;3.50;;;;;;;3.71;100.00;147136.06;4940774;28;20281;-50
2023/10/17 06:38:19;;;;;;;5.80;3.60;;;;;;;3.77;100.00;147152.16;4936936;28;20321;-51
2023/10/17 06:40:46;;;;;;;5.90;3.33;;;;;;;3.90;100.00;147183.19;4939201;28;20240;-50
2023/10/17 06:43:27;;;;;;;5.20;3.47;;;;;;;4.01;100.00;147207.97;4940838;28;20234;-50
2023/10/17 06:45:57;;;;;;;7.27;5.23;;;;;;;4.10;100.00;147230.31;4950774;28;20239;-49
2023/10/17 06:48:32;;;;;;;5.33;3.27;;;;;;;4.19;100.00;147252.63;4938209;28;20299;-50
2023/10/17 06:53:48;;;;;;;5.27;3.40;;;;;;;4.36;100.00;147292.25;4937058;28;20243;-51
2023/10/17 06:56:16;;;;;;;6.00;3.30;;;;;;;4.49;100.00;147324.50;4939837;28;20242;-51
2023/10/17 06:58:43;;;;;;;6.20;3.80;;;;;;;4.57;100.00;147343.13;4936737;28;20286;-52
2023/10/17 07:01:25;;;;;;;8.98;5.10;;;;;;;4.71;100.00;147377.88;4937654;28;20437;-51
2023/10/17 07:03:55;;;;;;;7.23;4.60;;;;;;;4.80;100.00;147397.69;4935799;28;20254;-50
2023/10/17 07:06:24;;;;;;;7.20;4.97;;;;;;;4.93;100.00;147429.94;4937361;28;20320;-52
2023/10/17 07:08:51;;;;;;;9.93;5.00;;;;;;;5.06;100.00;147460.97;4940483;28;20275;-50
2023/10/17 07:11:27;;;;;;;7.37;5.47;;;;;;;5.18;100.00;147489.50;4937369;28;20230;-50
2023/10/17 07:14:22;;;;;;;6.37;4.40;;;;;;;5.20;100.00;147493.25;4940015;28;20247;-50
2023/10/17 07:16:57;;;;;;;7.93;5.10;;;;;;;5.21;100.00;147495.72;4938025;28;20260;-52
2023/10/17 07:22:11;;;;;;;4.47;3.60;;;;;;;5.53;100.00;147573.88;4935002;28;20244;-51
2023/10/17 07:24:42;;;;;;;7.40;3.90;;;;;;;5.55;100.00;147578.84;4933287;28;20874;-50
2023/10/17 07:27:18;;;;;;;5.60;3.33;;;;;;;5.65;100.00;147601.19;4940940;28;20247;-51
2023/10/17 07:29:52;;;;;;;5.17;3.27;;;;;;;5.82;100.00;147642.16;4938363;28;20691;-50
2023/10/17 07:32:25;;;;;;;4.43;3.00;;;;;;;5.98;100.00;147680.59;4936294;28;20248;-52
2023/10/17 07:34:52;;;;;;;5.40;3.03;;;;;;;6.15;99.39;147722.88;4940832;28;20733;-51
2023/10/17 07:37:24;;;;;;;5.83;3.40;;;;;;;6.30;98.68;147758.91;4935770;28;20229;-50
2023/10/17 07:40:16;;;;;;;6.23;4.03;;;;;;;6.46;97.64;147797.41;4939370;28;20724;-51
2023/10/17 07:42:45;;;;;;;6.27;4.07;;;;;;;6.66;96.97;147844.59;4937334;28;20244;-50
2023/10/17 07:45:15;;;;;;;8.73;4.93;;;;;;;6.74;93.57;147864.47;4937588;28;20326;-50
2023/10/17 07:47:51;;;;;;;10.57;5.50;;;;;;;6.77;92.68;147870.66;4934087;28;20589;-52
2023/10/17 07:50:18;;;;;;;8.90;6.50;;;;;;;6.87;91.70;147895.50;4933449;28;20237;-51
2023/10/17 07:52:51;;;;;;;14.23;7.13;;;;;;;6.82;91.69;147881.88;4938070;29;20300;-50
2023/10/17 07:55:19;;;;;;;13.33;7.57;;;;;;;6.78;90.79;147873.13;4935733;28;20238;-50
2023/10/17 07:57:53;;;;;;;11.40;7.30;;;;;;;6.77;91.18;147870.66;4939180;28;20236;-52
2023/10/17 08:00:27;;;;;;;11.60;7.30;;;;;;;7.01;91.13;147927.81;4935494;28;20653;-50
2023/10/17 08:02:56;;;;;;;14.03;6.87;;;;;;;7.25;89.60;147986.19;4937424;28;20274;-50
2023/10/17 08:05:26;;;;;;;12.63;6.20;;;;;;;7.34;87.42;148007.34;4936052;28;20300;-51
2023/10/17 08:08:04;;;;;;;9.87;5.90;;;;;;;7.50;87.47;148047.06;4935988;28;20226;-50
2023/10/17 08:10:33;;;;;;;9.63;6.77;;;;;;;7.56;87.49;148059.50;4933542;28;20742;-51
2023/10/17 08:13:01;;;;;;;7.70;5.10;;;;;;;7.67;86.33;148086.84;4952541;28;20286;-50
2023/10/17 08:15:36;;;;;;;12.57;6.93;;;;;;;7.64;84.56;148080.66;4935816;28;20231;-50
2023/10/17 08:18:05;;;;;;;9.70;7.03;;;;;;;7.53;84.47;148053.31;4939132;28;20234;-51
2023/10/17 08:21:33;;;;;;;10.67;6.90;;;;;;;7.49;84.35;148044.59;4933539;28;20268;-52
2023/10/17 08:23:41;;;;;;;12.07;7.33;;;;;;;7.58;83.35;148065.75;4934978;29;20697;-50
2023/10/17 08:26:10;;;;;;;12.40;7.13;;;;;;;7.52;84.91;148052.03;4938331;28;20225;-51
2023/10/17 08:28:37;;;;;;;13.73;7.00;;;;;;;7.51;85.04;148048.34;4936531;28;20246;-51
2023/10/17 08:31:17;;;;;;;9.77;7.17;;;;;;;7.57;83.98;148061.97;4935453;28;20241;-50
2023/10/17 08:33:53;;;;;;;9.93;7.10;;;;;;;7.56;84.58;148059.50;4934072;28;20238;-51
2023/10/17 08:36:23;;;;;;;9.87;6.67;;;;;;;7.48;85.51;148042.09;4937436;28;20801;-50
2023/10/17 08:38:50;;;;;;;9.93;6.77;;;;;;;7.77;82.77;148111.72;4937733;28;20238;-50
2023/10/17 08:41:22;;;;;;;11.67;7.23;;;;;;;7.85;84.01;148130.38;4932380;28;20244;-50
2023/10/17 08:43:49;;;;;;;16.47;8.70;;;;;;;7.60;83.47;148069.44;4941150;28;20235;-53
2023/10/17 08:46:17;;;;;;;12.00;7.90;;;;;;;7.90;82.60;148141.56;4941239;28;20227;-54
2023/10/17 08:48:44;;;;;;;16.37;8.60;;;;;;;7.91;83.25;148144.03;4934942;28;20235;-52
2023/10/17 08:51:15;;;;;;;18.07;10.13;;;;;;;7.70;83.16;148093.09;4936750;28;20654;-51
2023/10/17 08:53:43;;;;;;;16.73;8.63;;;;;;;8.07;81.80;148183.81;4935569;28;20240;-52
2023/10/17 08:56:13;;;;;;;17.27;10.47;;;;;;;7.73;82.64;148101.75;4936993;28;20264;-52
2023/10/17 08:58:43;;;;;;;15.43;9.03;;;;;;;8.03;81.68;148173.88;4933729;28;20241;-51
2023/10/17 09:01:10;;;;;;;14.17;8.90;;;;;;;8.23;81.31;148221.13;4938047;28;20247;-51
2023/10/17 09:03:41;;;;;;;13.53;8.83;;;;;;;8.28;80.78;148234.78;4932888;28;20241;-51
2023/10/17 09:06:28;;;;;;;13.83;8.70;;;;;;;8.28;81.42;148233.56;4943600;29;20242;-53
2023/10/17 09:09:17;;;;;;;12.67;8.37;;;;;;;8.36;82.71;148253.47;4934232;28;20236;-51
2023/10/17 09:15:02;;;;;;;15.43;9.53;;;;;;;8.57;80.42;148303.22;5079296;27;20610;-50
2023/10/17 09:17:30;;;;;;;11.67;8.20;;;;;;;8.75;78.53;148345.50;5063679;28;20622;-52
2023/10/17 09:20:05;;;;;;;16.17;8.30;;;;;;;9.05;78.00;148418.91;5071201;28;20640;-51
2023/10/17 09:22:41;;;;;;;15.07;8.60;;;;;;;9.11;78.64;148433.81;5071228;28;20304;-51
2023/10/17 09:25:19;;;;;;;17.43;8.73;;;;;;;9.26;78.27;148468.66;5072138;28;20280;-50
2023/10/17 09:27:52;;;;;;;13.73;9.20;;;;;;;9.26;75.70;148468.66;5062871;28;20224;-50
2023/10/17 09:30:23;;;;;;;14.57;9.17;;;;;;;9.16;76.91;148446.28;5064816;28;20646;-52
2023/10/17 09:32:51;;;;;;;18.83;9.70;;;;;;;9.32;78.84;148482.38;5074145;28;20628;-50
2023/10/17 09:35:18;;;;;;;13.07;8.40;;;;;;;9.38;75.83;148498.53;5066699;28;20217;-53
2023/10/17 09:37:51;;;;;;;13.07;7.97;;;;;;;9.48;75.83;148522.22;5073311;28;20730;-53
2023/10/17 09:40:27;;;;;;;13.50;7.90;;;;;;;9.46;74.18;148517.22;5066862;28;20667;-51
2023/10/17 09:42:54;;;;;;;13.03;7.37;;;;;;;9.32;76.32;148482.38;5067021;28;20327;-51
2023/10/17 09:45:23;;;;;;;14.73;7.57;;;;;;;9.34;74.76;148487.38;5065859;28;20238;-50
2023/10/17 09:47:54;;;;;;;11.47;8.30;;;;;;;9.07;75.26;148423.88;5070338;28;20228;-50
2023/10/17 09:50:23;;;;;;;11.03;7.43;;;;;;;9.16;74.49;148446.28;5066748;28;21166;-50
2023/10/17 09:52:56;;;;;;;11.97;7.90;;;;;;;9.12;75.78;148435.09;5063440;28;20332;-50
2023/10/17 09:55:24;;;;;;;12.57;7.43;;;;;;;9.22;73.93;148458.72;5064748;28;20720;-49
2023/10/17 09:57:54;;;;;;;12.17;7.73;;;;;;;9.02;76.02;148411.44;5068319;28;20224;-50
2023/10/17 10:00:36;;;;;;;10.30;7.43;;;;;;;9.23;74.71;148462.47;5065362;28;20222;-49
2023/10/17 10:03:05;;;;;;;11.50;7.13;;;;;;;9.47;74.23;148519.72;5065914;28;20237;-50
2023/10/17 10:05:32;;;;;;;12.00;7.67;;;;;;;9.40;73.78;148502.31;5065789;28;20282;-50
2023/10/17 10:08:02;;;;;;;10.67;6.47;;;;;;;9.41;73.85;148504.78;5064586;28;20249;-51
2023/10/17 10:10:51;;;;;;;11.53;6.63;;;;;;;9.70;72.79;148574.44;5061363;28;20221;-50
2023/10/17 10:13:19;;;;;;;9.57;6.97;;;;;;;9.84;71.98;148609.31;5066607;28;20330;-51
2023/10/17 10:15:55;;;;;;;11.63;7.17;;;;;;;10.27;71.64;148711.41;5068832;28;20225;-54
2023/10/17 10:18:58;;;;;;;9.60;6.63;;;;;;;10.47;71.93;148760.00;5065533;28;20694;-52
2023/10/17 10:21:56;;;;;;;10.23;6.30;;;;;;;10.85;66.97;148852.19;5064484;28;20696;-52
2023/10/17 10:24:27;;;;;;;7.87;6.20;;;;;;;10.96;70.02;148877.09;5059568;28;20265;-52
2023/10/17 10:27:24;;;;;;;9.13;6.73;;;;;;;11.20;67.02;148936.84;5060319;28;20292;-54
2023/10/17 10:29:53;;;;;;;9.40;6.03;;;;;;;11.40;66.14;148984.22;5043589;28;20236;-50
2023/10/17 10:32:33;;;;;;;9.93;6.73;;;;;;;11.29;65.79;148958.06;5053274;28;20235;-52
2023/10/17 10:35:00;;;;;;;11.30;6.80;;;;;;;11.53;65.34;149015.38;5054752;28;20299;-51
2023/10/17 10:37:26;;;;;;;8.70;5.67;;;;;;;11.42;65.72;148989.19;5051843;28;20237;-52
2023/10/17 10:40:16;;;;;;;8.83;6.23;;;;;;;10.53;69.53;148774.94;5051953;28;20234;-50
2023/10/17 10:42:47;;;;;;;10.50;7.50;;;;;;;10.92;69.31;148868.34;5051305;28;20223;-52
2023/10/17 10:45:35;;;;;;;10.40;5.53;;;;;;;11.05;66.37;148899.53;5055160;28;20231;-51
2023/10/17 10:48:07;;;;;;;7.33;5.67;;;;;;;10.13;71.97;148679.03;5050060;28;21157;-51
2023/10/17 10:50:35;;;;;;;12.00;6.93;;;;;;;10.57;71.04;148783.69;5054813;28;20738;-49
2023/10/17 10:53:03;;;;;;;8.93;5.97;;;;;;;10.85;69.73;148852.19;5055192;28;20234;-52
2023/10/17 10:55:30;;;;;;;10.17;5.97;;;;;;;10.78;70.70;148834.75;5053372;28;20685;-50
2023/10/17 10:58:00;;;;;;;11.50;6.20;;;;;;;10.87;71.65;148857.16;5047321;28;20318;-50
2023/10/17 11:00:27;;;;;;;9.13;6.43;;;;;;;10.59;72.37;148789.91;5050603;28;20292;-50
2023/10/17 11:02:56;;;;;;;12.77;7.23;;;;;;;10.74;73.02;148826.00;5056077;28;20262;-52
2023/10/17 11:05:24;;;;;;;10.03;6.87;;;;;;;10.81;71.73;148842.22;5052383;28;20326;-52
2023/10/17 11:07:59;;;;;;;10.90;6.73;;;;;;;11.37;69.79;148978.00;5053945;28;20244;-52
2023/10/17 11:10:26;;;;;;;11.83;7.23;;;;;;;11.19;70.07;148934.38;5054195;28;20279;-52
2023/10/17 11:12:54;;;;;;;10.13;6.60;;;;;;;11.06;70.28;148902.00;5054366;28;20338;-50
2023/10/17 11:15:26;;;;;;;11.33;6.70;;;;;;;10.83;71.85;148847.19;5050125;28;20223;-50
2023/10/17 11:18:00;;;;;;;11.90;6.30;;;;;;;10.88;71.89;148858.38;5055121;28;20274;-52
2023/10/17 11:20:28;;;;;;;9.30;6.17;;;;;;;11.19;71.54;148933.13;5052998;28;20705;-50
2023/10/17 11:22:56;;;;;;;8.50;6.80;;;;;;;11.21;71.65;148939.34;5053175;28;20227;-52
2023/10/17 11:25:26;;;;;;;9.87;6.57;;;;;;;11.42;71.99;148987.97;5057744;28;20231;-52
2023/10/17 11:27:56;;;;;;;10.80;7.17;;;;;;;11.15;72.04;148923.16;5057358;28;20851;-54
2023/10/17 11:30:32;;;;;;;14.47;7.20;;;;;;;11.53;71.24;149015.38;5051331;28;20735;-52
2023/10/17 11:33:04;;;;;;;9.40;6.23;;;;;;;11.79;67.46;149078.94;5054797;28;20229;-54
2023/10/17 11:35:34;;;;;;;8.30;5.50;;;;;;;12.23;66.60;149184.94;5051018;28;20212;-54
2023/10/17 11:38:01;;;;;;;10.07;6.30;;;;;;;12.40;65.56;149226.06;5053672;28;20227;-54
2023/10/17 11:40:38;;;;;;;18.30;6.00;;;;;;;11.45;69.19;148995.44;5051567;28;20219;-51
2023/10/17 11:43:16;;;;;;;13.40;6.80;;;;;;;11.98;68.55;149122.53;5052624;28;20226;-53
2023/10/17 11:45:42;;;;;;;9.87;6.60;;;;;;;11.55;69.48;149019.09;5050570;28;20228;-51
2023/10/17 11:48:26;;;;;;;9.50;6.13;;;;;;;11.86;68.56;149095.13;5055263;28;20214;-52
2023/10/17 11:51:12;;;;;;;8.83;6.20;;;;;;;11.65;69.91;149044.03;5050099;28;20234;-51
2023/10/17 11:54:07;;;;;;;10.67;6.53;;;;;;;11.48;69.66;149004.16;5052146;28;20284;-53
2023/10/17 11:56:35;;;;;;;9.53;5.70;;;;;;;11.69;69.76;149054.00;5040548;28;20211;-52
2023/10/17 11:59:03;;;;;;;8.60;5.73;;;;;;;11.78;68.52;149075.16;5049681;28;20643;-52
2023/10/17 12:01:30;;;;;;;11.47;6.70;;;;;;;11.13;71.09;148918.19;5050267;28;20224;-50
2023/10/17 12:03:58;;;;;;;12.93;7.27;;;;;;;11.31;71.16;148961.78;5052900;28;20227;-51
2023/10/17 12:06:27;;;;;;;10.30;6.20;;;;;;;11.38;71.11;148979.22;5053049;28;20322;-52
2023/10/17 12:08:54;;;;;;;8.77;6.10;;;;;;;11.71;71.07;149057.72;5053446;28;20233;-52
2023/10/17 12:11:24;;;;;;;9.47;5.70;;;;;;;11.63;70.34;149040.31;5048314;28;20249;-51
2023/10/17 12:13:51;;;;;;;8.27;6.10;;;;;;;11.64;70.53;149042.81;5055262;28;20315;-53
2023/10/17 12:16:23;;;;;;;11.53;6.27;;;;;;;11.55;70.13;149020.38;5050496;28;20587;-50
2023/10/17 12:18:51;;;;;;;11.10;5.70;;;;;;;11.78;69.77;149075.16;5055149;28;20748;-52
2023/10/17 12:21:18;;;;;;;11.93;6.50;;;;;;;11.85;70.43;149092.63;5052762;28;20230;-51
2023/10/17 12:23:46;;;;;;;9.93;6.10;;;;;;;12.13;70.66;149158.78;5047258;28;20228;-52
2023/10/17 12:26:14;;;;;;;9.63;5.70;;;;;;;12.14;71.23;149161.25;5058095;28;20231;-50
2023/10/17 12:28:42;;;;;;;7.57;5.43;;;;;;;12.19;70.54;149174.97;5053072;28;20289;-52
2023/10/17 12:31:10;;;;;;;9.67;5.80;;;;;;;12.24;70.26;149186.16;5052520;28;20220;-52
2023/10/17 12:33:37;;;;;;;10.97;5.57;;;;;;;12.35;69.03;149212.38;5049516;28;20236;-53
2023/10/17 12:36:04;;;;;;;9.27;5.07;;;;;;;12.30;69.79;149199.91;5051912;28;20230;-52
2023/10/17 12:38:34;;;;;;;10.23;5.03;;;;;;;12.28;68.54;149196.13;5043325;28;20222;-52
2023/10/17 12:41:06;;;;;;;9.17;4.63;;;;;;;12.24;68.23;149187.44;5040978;28;20238;-51
2023/10/17 12:43:33;;;;;;;10.83;4.97;;;;;;;12.13;68.23;149160.00;5048374;28;20224;-50
2023/10/17 12:46:00;;;;;;;8.20;4.87;;;;;;;11.98;70.66;149122.53;5054195;28;20230;-51
2023/10/17 12:48:27;;;;;;;9.63;5.90;;;;;;;11.66;72.08;149046.53;5051648;28;20682;-51
2023/10/17 12:50:53;;;;;;;9.80;5.50;;;;;;;11.65;72.56;149045.31;5054266;28;20232;-51
2023/10/17 12:53:20;;;;;;;9.10;6.10;;;;;;;11.58;72.29;149027.84;5050365;28;20232;-51
2023/10/17 12:55:46;;;;;;;7.87;5.00;;;;;;;11.77;71.90;149072.69;5053102;28;20254;-50
2023/10/17 12:58:18;;;;;;;8.20;5.77;;;;;;;11.54;72.78;149016.63;5054158;28;20229;-51
2023/10/17 13:00:47;;;;;;;7.63;5.00;;;;;;;11.69;71.85;149054.00;5051634;28;20628;-51
2023/10/17 13:03:15;;;;;;;8.30;5.77;;;;;;;11.58;73.72;149027.84;5046520;28;20710;-50
2023/10/17 13:05:41;;;;;;;11.93;6.00;;;;;;;11.64;72.30;149041.53;5048671;28;20808;-51
2023/10/17 13:08:08;;;;;;;7.70;5.27;;;;;;;11.98;70.77;149122.53;5046184;28;20237;-52
2023/10/17 13:10:34;;;;;;;11.23;5.73;;;;;;;12.03;71.44;149136.34;5042417;28;20711;-50